Terminal Aerodrome Forecast
Issued by NWS Salt Lake City, UT

Home | Current Version | Previous Version | Text Only | Print | Product List | Glossary On
Versions: 1 2 3 4 5 6 7 8 9 10 11 12 13 14 15 16 17 18 19 20 21 22 23 24 25
000
FTUS45 KSLC 042341 CCB
TAFSLC
TAF COR
KSLC 042341Z 0500/0606 17012G19KT P6SM SCT200
     FM050300 16008KT P6SM SKC
     FM051600 16015G25KT P6SM SKC=

USA.gov is the U.S. government's official web portal to all federal, state and local government web resources and services.